Time;durP1;ratioP1;P1;durP2;ratioP2;P2;SDS_P1;SDS_P2;PMS_P1;PMS_P2;Temp;Humidity;BMP_temperature;BMP_pressure;BME280_temperature;BME280_humidity;BME280_pressure;Samples;Min_cycle;Max_cycle;Signal;HPM_P1;HPM_P2
2022/12/11 00:00:10;;;;;;;9.18;6.55;;;;;;;21.85;46.07;92823.38;5042999;28;20044;-61
2022/12/11 00:02:36;;;;;;;8.38;6.40;;;;;;;22.01;45.93;92874.38;5043487;28;20433;-61
2022/12/11 00:05:01;;;;;;;7.90;5.95;;;;;;;22.01;46.08;92871.66;5025090;28;20049;-61
2022/12/11 00:07:27;;;;;;;9.93;6.65;;;;;;;20.91;45.93;92720.81;5044711;28;20028;-61
2022/12/11 00:09:52;;;;;;;7.70;5.63;;;;;;;21.86;46.21;92845.88;5009717;28;20531;-60
2022/12/11 00:12:18;;;;;;;9.20;6.43;;;;;;;21.32;45.96;92767.16;5026052;28;20052;-61
2022/12/11 00:14:43;;;;;;;8.70;6.35;;;;;;;21.97;46.09;92868.63;5009922;28;20037;-61
2022/12/11 00:17:09;;;;;;;8.02;6.05;;;;;;;21.93;46.27;92846.53;5044843;28;20032;-61
2022/12/11 00:19:34;;;;;;;8.30;6.50;;;;;;;21.43;46.10;92756.59;5044575;28;20032;-62
2022/12/11 00:21:59;;;;;;;7.90;6.15;;;;;;;21.93;46.31;92857.41;5025785;28;20044;-61
2022/12/11 00:24:25;;;;;;;7.88;6.00;;;;;;;21.94;46.15;92831.69;5043491;28;20071;-61
2022/12/11 00:26:50;;;;;;;9.50;6.55;;;;;;;21.36;46.28;92772.91;5043844;28;20060;-61
2022/12/11 00:29:16;;;;;;;8.57;5.95;;;;;;;21.09;46.01;92706.78;5043646;28;20641;-61
2022/12/11 00:31:41;;;;;;;8.32;5.80;;;;;;;21.05;46.23;92739.75;5043109;28;20410;-61
2022/12/11 00:34:07;;;;;;;9.15;6.10;;;;;;;20.60;46.25;92662.50;5026576;28;20493;-61
2022/12/11 00:36:32;;;;;;;9.10;6.15;;;;;;;21.70;46.41;92841.75;5043157;28;20045;-62
2022/12/11 00:38:58;;;;;;;8.45;6.18;;;;;;;21.85;47.00;92853.28;5044032;28;20515;-61
2022/12/11 00:41:23;;;;;;;9.32;6.20;;;;;;;21.90;46.56;92862.50;5025746;28;20420;-61
2022/12/11 00:43:49;;;;;;;8.10;6.30;;;;;;;21.86;46.03;92848.59;5028420;28;20719;-61
2022/12/11 00:46:15;;;;;;;8.18;5.97;;;;;;;21.89;46.35;92833.91;5044299;28;20059;-61
2022/12/11 00:48:40;;;;;;;8.55;6.35;;;;;;;21.88;46.37;92833.16;5043199;28;20053;-61
2022/12/11 00:51:06;;;;;;;8.38;6.20;;;;;;;21.37;46.18;92766.94;5043247;28;20540;-62
2022/12/11 00:53:31;;;;;;;7.60;6.13;;;;;;;21.84;46.53;92832.09;5025406;28;20602;-61
2022/12/11 00:55:56;;;;;;;8.25;6.13;;;;;;;20.50;46.29;92637.22;5025792;28;20049;-61
2022/12/11 00:58:22;;;;;;;8.20;5.93;;;;;;;21.90;46.15;92857.06;5046205;28;20068;-60
2022/12/11 01:00:48;;;;;;;7.45;5.78;;;;;;;21.86;46.33;92862.16;5029360;28;20077;-60
2022/12/11 01:03:14;;;;;;;7.80;5.68;;;;;;;21.79;46.48;92862.91;5047393;28;20071;-61
2022/12/11 01:05:40;;;;;;;8.07;5.88;;;;;;;21.80;46.29;92820.91;5029137;28;20429;-61
2022/12/11 01:08:06;;;;;;;9.07;6.38;;;;;;;21.69;46.62;92821.31;5029226;28;20037;-61
2022/12/11 01:10:31;;;;;;;7.13;5.72;;;;;;;21.86;46.51;92862.16;5047185;28;20037;-61
2022/12/11 01:13:04;;;;;;;7.93;6.30;;;;;;;21.85;46.34;92858.00;5029200;28;20140;-62
2022/12/11 01:15:37;;;;;;;8.25;6.13;;;;;;;21.61;46.44;92798.88;5029240;28;20056;-61
2022/12/11 01:18:03;;;;;;;8.75;6.13;;;;;;;21.77;46.37;92827.44;5047843;28;20045;-61
2022/12/11 01:20:28;;;;;;;8.45;6.13;;;;;;;21.82;46.51;92848.22;5029728;28;20075;-60
2022/12/11 01:22:55;;;;;;;9.85;6.47;;;;;;;21.76;46.39;92869.44;5047868;28;20032;-61
2022/12/11 01:25:21;;;;;;;6.95;5.38;;;;;;;21.65;46.54;92897.03;5029011;28;20032;-60
2022/12/11 01:27:48;;;;;;;8.50;5.85;;;;;;;21.76;46.35;92870.16;5028947;28;20076;-61
2022/12/11 01:30:13;;;;;;;8.30;6.20;;;;;;;21.64;46.40;92816.81;5028923;28;20053;-60
2022/12/11 01:32:39;;;;;;;8.48;6.40;;;;;;;21.72;46.54;92798.47;5046634;28;20533;-60
2022/12/11 01:35:06;;;;;;;8.00;6.18;;;;;;;21.81;46.30;92768.00;5045391;28;20044;-61
2022/12/11 01:37:31;;;;;;;7.75;5.90;;;;;;;21.74;46.61;92801.38;5029885;28;20468;-60
2022/12/11 01:39:57;;;;;;;8.73;6.28;;;;;;;21.77;46.53;92811.13;5047013;28;20053;-61
2022/12/11 01:42:24;;;;;;;7.85;6.05;;;;;;;21.58;46.36;92767.41;5046889;28;20068;-61
2022/12/11 01:44:49;;;;;;;7.45;6.00;;;;;;;21.78;46.49;92807.13;5035735;28;20059;-60
2022/12/11 01:47:14;;;;;;;7.47;5.72;;;;;;;21.79;46.35;92803.16;5046890;28;20033;-62
2022/12/11 01:49:40;;;;;;;8.38;5.88;;;;;;;21.75;46.42;92786.50;5030550;28;20036;-60
2022/12/11 01:52:08;;;;;;;8.70;6.30;;;;;;;21.62;46.59;92762.31;5029493;28;20076;-60
2022/12/11 01:54:34;;;;;;;8.90;6.07;;;;;;;21.71;46.64;92808.63;5028260;28;20141;-60
2022/12/11 01:57:02;;;;;;;7.68;5.65;;;;;;;21.71;46.38;92786.19;5028742;28;20456;-60
2022/12/11 01:59:28;;;;;;;7.55;5.88;;;;;;;21.77;46.37;92846.44;5046616;28;20513;-61
2022/12/11 02:02:00;;;;;;;7.35;5.68;;;;;;;21.13;46.40;92718.72;5003385;28;20033;-61
2022/12/11 02:04:25;;;;;;;7.88;5.47;;;;;;;21.71;46.42;92851.38;5024886;28;20021;-61
2022/12/11 02:06:51;;;;;;;7.90;5.63;;;;;;;21.16;46.48;92744.75;5027268;28;20536;-60
2022/12/11 02:09:22;;;;;;;6.80;5.47;;;;;;;21.75;46.55;92791.94;5027233;28;20144;-61
2022/12/11 02:12:06;;;;;;;7.78;5.70;;;;;;;21.75;46.74;92862.56;5028486;28;20108;-62
2022/12/11 02:14:33;;;;;;;8.27;6.13;;;;;;;21.75;46.38;92808.22;5045459;28;20049;-61
2022/12/11 02:17:06;;;;;;;7.22;5.90;;;;;;;21.71;46.59;92780.75;5033403;28;20052;-60
2022/12/11 02:20:00;;;;;;;7.38;5.60;;;;;;;21.72;46.50;92771.31;5012510;28;20041;-61
2022/12/11 02:22:47;;;;;;;7.82;5.15;;;;;;;21.72;46.61;92757.72;5030938;28;20056;-60
2022/12/11 02:25:29;;;;;;;7.32;5.70;;;;;;;21.73;46.64;92734.72;5045655;28;21086;-60
2022/12/11 02:28:24;;;;;;;6.70;5.28;;;;;;;21.72;46.53;92749.56;5027934;28;20059;-61
2022/12/11 02:30:53;;;;;;;8.00;5.40;;;;;;;21.66;46.62;92702.91;5017597;28;20044;-61
2022/12/11 02:33:20;;;;;;;6.05;5.15;;;;;;;21.61;46.53;92728.28;5012099;28;20138;-60
2022/12/11 02:35:46;;;;;;;6.47;5.00;;;;;;;21.34;46.75;92694.72;5034466;28;20104;-61
2022/12/11 02:38:14;;;;;;;7.03;5.25;;;;;;;21.63;46.47;92736.63;5050900;28;20041;-62
2022/12/11 02:40:40;;;;;;;7.18;5.40;;;;;;;21.60;46.86;92732.28;5015575;28;20025;-65
2022/12/11 02:43:06;;;;;;;6.95;5.28;;;;;;;21.70;46.33;92735.84;5036582;28;20029;-59
2022/12/11 02:45:33;;;;;;;7.75;5.40;;;;;;;21.68;46.48;92749.97;5051423;28;20059;-63
2022/12/11 02:47:58;;;;;;;7.13;5.40;;;;;;;21.74;46.57;92776.94;5029717;28;20045;-59
2022/12/11 02:50:23;;;;;;;7.75;5.43;;;;;;;21.75;46.52;92775.63;5028158;28;20048;-62
2022/12/11 02:52:49;;;;;;;7.13;5.57;;;;;;;21.57;46.32;92741.53;5028488;28;20033;-60
2022/12/11 02:55:15;;;;;;;6.93;5.43;;;;;;;21.75;46.60;92775.63;5028011;28;20037;-60
2022/12/11 02:57:50;;;;;;;7.43;5.30;;;;;;;21.74;46.64;92795.94;5010423;28;20575;-61
2022/12/11 03:00:15;;;;;;;7.47;5.57;;;;;;;21.67;46.59;92774.97;5011737;28;20049;-61
2022/12/11 03:02:41;;;;;;;6.60;5.13;;;;;;;21.69;46.66;92756.13;5044912;28;20075;-60
2022/12/11 03:05:07;;;;;;;7.97;5.47;;;;;;;21.70;46.59;92763.00;5026163;28;20088;-61
2022/12/11 03:07:33;;;;;;;7.10;5.18;;;;;;;21.75;46.78;92770.19;5028413;28;20040;-61
2022/12/11 03:09:59;;;;;;;8.10;5.13;;;;;;;21.73;46.62;92761.88;5025674;28;20582;-60
2022/12/11 03:12:28;;;;;;;6.00;4.95;;;;;;;21.73;46.65;92761.88;5010564;28;20062;-61
2022/12/11 03:14:53;;;;;;;5.50;4.82;;;;;;;21.54;46.61;92734.50;5044750;28;20515;-61
2022/12/11 03:17:43;;;;;;;6.32;4.82;;;;;;;21.74;46.60;92753.19;5027220;28;20159;-60
2022/12/11 03:20:16;;;;;;;6.18;4.82;;;;;;;21.73;46.58;92751.03;5021344;28;20555;-60
2022/12/11 03:22:47;;;;;;;7.00;5.18;;;;;;;21.59;46.51;92730.84;5026552;28;20032;-60
2022/12/11 03:25:21;;;;;;;6.45;4.93;;;;;;;21.70;46.72;92746.69;5045356;28;20041;-61
2022/12/11 03:28:09;;;;;;;6.07;4.80;;;;;;;21.75;46.64;92764.75;5010851;28;20041;-60
2022/12/11 03:30:35;;;;;;;5.80;4.72;;;;;;;21.74;46.84;92764.06;5000205;28;20040;-61
2022/12/11 03:33:03;;;;;;;6.93;5.03;;;;;;;21.35;46.65;92707.03;5010155;28;20476;-60
2022/12/11 03:35:43;;;;;;;6.18;4.90;;;;;;;21.67;46.58;92770.28;5009736;28;20040;-61
2022/12/11 03:38:47;;;;;;;6.63;5.15;;;;;;;21.74;46.67;92785.06;5033936;28;20045;-61
2022/12/11 03:41:13;;;;;;;6.97;5.15;;;;;;;20.38;46.37;92576.53;5009342;28;20045;-61
2022/12/11 03:43:39;;;;;;;6.80;4.85;;;;;;;21.74;46.63;92779.63;5029216;28;20037;-61
2022/12/11 03:46:05;;;;;;;7.85;5.43;;;;;;;21.73;46.73;92789.78;5044706;28;20029;-61
2022/12/11 03:48:33;;;;;;;7.05;5.03;;;;;;;21.73;46.76;92805.34;5010155;28;20045;-61
2022/12/11 03:50:58;;;;;;;6.93;4.97;;;;;;;21.72;46.70;92787.59;4993675;28;20488;-61
2022/12/11 03:53:25;;;;;;;5.38;4.47;;;;;;;21.57;46.49;92771.41;5010024;28;20051;-60
2022/12/11 03:55:50;;;;;;;5.20;4.47;;;;;;;21.54;46.79;92783.38;5026500;28;20086;-59
2022/12/11 03:58:16;;;;;;;5.75;4.60;;;;;;;20.76;46.46;92696.44;5044138;28;20029;-61
2022/12/11 04:00:41;;;;;;;6.28;5.07;;;;;;;21.05;46.67;92736.31;5026766;28;20040;-61
2022/12/11 04:03:12;;;;;;;5.70;4.50;;;;;;;21.59;46.70;92823.88;5027549;28;20524;-60
2022/12/11 04:05:48;;;;;;;5.65;4.50;;;;;;;21.72;46.80;92842.66;5042936;28;20045;-61
2022/12/11 04:08:14;;;;;;;6.60;4.63;;;;;;;21.74;46.59;92836.69;5043686;28;20116;-61
2022/12/11 04:10:40;;;;;;;6.18;4.57;;;;;;;21.66;46.44;92849.59;5043185;28;20550;-61
2022/12/11 04:13:06;;;;;;;5.90;4.65;;;;;;;21.61;46.71;92815.19;5045321;28;20086;-61
2022/12/11 04:15:32;;;;;;;6.35;4.70;;;;;;;21.65;46.55;92815.53;5044131;28;20481;-61
2022/12/11 04:26:11;;;;;;;5.43;4.07;;;;;;;21.74;46.51;92858.41;5044289;28;20132;-61
2022/12/11 04:28:37;;;;;;;4.95;4.05;;;;;;;21.72;46.60;92864.41;5043474;28;20489;-61
2022/12/11 04:31:02;;;;;;;5.88;4.53;;;;;;;21.70;46.67;92871.66;5009643;28;20124;-62
2022/12/11 04:33:28;;;;;;;6.00;4.75;;;;;;;21.68;46.51;92864.03;5025097;28;20052;-61
2022/12/11 04:35:53;;;;;;;5.68;4.35;;;;;;;21.49;46.61;92842.03;5042763;28;20566;-61
2022/12/11 04:38:19;;;;;;;5.57;4.30;;;;;;;21.50;46.64;92842.75;5031658;28;20041;-60
2022/12/11 04:40:44;;;;;;;6.47;4.43;;;;;;;21.63;46.85;92872.41;5043829;28;20041;-61
2022/12/11 04:43:10;;;;;;;6.75;4.90;;;;;;;21.49;46.71;92857.59;5043651;28;20044;-61
2022/12/11 04:45:35;;;;;;;5.88;4.32;;;;;;;21.50;46.73;92867.19;5044138;28;20052;-60
2022/12/11 04:48:00;;;;;;;5.68;4.40;;;;;;;21.68;46.66;92901.34;5032404;28;20683;-61
2022/12/11 04:50:26;;;;;;;5.63;4.45;;;;;;;21.69;46.71;92916.41;5025833;28;20576;-61
2022/12/11 04:52:55;;;;;;;4.93;4.10;;;;;;;21.72;46.43;92907.13;5044000;28;20129;-60
2022/12/11 04:55:20;;;;;;;5.47;4.00;;;;;;;21.68;46.83;92906.78;5044617;28;20055;-61
2022/12/11 04:57:45;;;;;;;5.80;4.30;;;;;;;21.52;46.76;92891.81;5043767;28;20128;-61
2022/12/11 05:00:11;;;;;;;5.60;4.20;;;;;;;21.70;46.66;92924.00;5005974;28;20053;-62
2022/12/11 05:02:37;;;;;;;5.57;4.25;;;;;;;21.72;46.78;92896.25;5026289;28;20114;-60
2022/12/11 05:05:04;;;;;;;5.82;4.40;;;;;;;21.67;46.80;92916.19;5043479;28;20800;-60
2022/12/11 05:07:29;;;;;;;5.45;4.30;;;;;;;21.71;46.73;92894.81;5043621;28;20055;-60
2022/12/11 05:09:55;;;;;;;4.75;3.78;;;;;;;21.52;46.47;92868.09;5007086;28;20754;-60
2022/12/11 05:12:20;;;;;;;5.25;4.30;;;;;;;21.69;46.64;92905.53;5031111;28;20055;-61
2022/12/11 05:14:46;;;;;;;5.30;3.97;;;;;;;21.68;46.67;92901.34;5043023;28;20057;-60
2022/12/11 05:17:12;;;;;;;5.55;4.30;;;;;;;21.68;46.44;92879.63;5043921;28;20037;-61
2022/12/11 05:19:37;;;;;;;5.35;3.80;;;;;;;21.69;46.42;92867.50;5034889;28;20040;-61
2022/12/11 05:22:03;;;;;;;5.35;4.03;;;;;;;21.66;46.87;92876.75;5044328;28;20413;-60
2022/12/11 05:24:28;;;;;;;4.13;3.63;;;;;;;21.50;46.62;92859.06;5042908;28;20052;-60
2022/12/11 05:26:54;;;;;;;6.25;3.80;;;;;;;21.63;46.54;92866.97;5042812;28;20041;-60
2022/12/11 05:29:19;;;;;;;5.28;4.10;;;;;;;21.69;46.51;92881.78;5025498;28;20034;-60
2022/12/11 05:31:45;;;;;;;4.95;3.85;;;;;;;21.66;46.50;92903.91;5044899;28;20453;-61
2022/12/11 05:34:10;;;;;;;4.38;3.63;;;;;;;21.66;46.46;92887.63;5044143;28;20408;-60
2022/12/11 05:36:36;;;;;;;4.55;3.67;;;;;;;21.65;46.53;92967.63;5024303;28;20045;-61
2022/12/11 05:39:02;;;;;;;5.25;3.90;;;;;;;21.59;46.40;92902.63;5043560;28;20191;-61
2022/12/11 05:41:29;;;;;;;4.43;3.65;;;;;;;21.63;46.65;92872.41;5043086;28;20124;-61
2022/12/11 05:43:55;;;;;;;4.47;3.70;;;;;;;20.97;46.36;92755.34;5044531;28;20070;-61
2022/12/11 05:46:27;;;;;;;4.78;4.03;;;;;;;21.68;46.58;92866.03;5044503;28;20532;-60
2022/12/11 05:48:54;;;;;;;5.10;3.50;;;;;;;19.83;45.84;92582.44;5029254;28;20057;-60
2022/12/11 05:51:20;;;;;;;5.20;3.50;;;;;;;21.77;46.56;92870.91;5046967;28;20051;-61
2022/12/11 05:53:47;;;;;;;4.20;3.33;;;;;;;21.31;46.38;92809.84;5012572;28;20037;-61
2022/12/11 05:56:14;;;;;;;4.78;3.38;;;;;;;21.70;46.41;92877.06;5045630;28;20323;-60
2022/12/11 05:58:40;;;;;;;5.60;3.72;;;;;;;21.83;46.72;92852.41;5045313;28;20473;-61
2022/12/11 06:01:10;;;;;;;5.22;3.42;;;;;;;21.69;46.63;92843.06;5034589;28;20025;-60
2022/12/11 06:03:35;;;;;;;4.20;3.42;;;;;;;21.91;46.44;92864.66;5011378;28;20040;-58
2022/12/11 06:06:02;;;;;;;4.78;3.42;;;;;;;21.70;46.59;92817.31;5045026;28;20505;-61
2022/12/11 06:08:28;;;;;;;5.32;3.45;;;;;;;21.96;46.34;92845.44;5043939;28;20511;-61
2022/12/11 06:10:53;;;;;;;4.38;3.38;;;;;;;22.01;46.31;92844.50;5043470;28;20036;-62
2022/12/11 06:13:19;;;;;;;5.10;3.70;;;;;;;22.02;46.28;92837.78;5028085;28;20088;-61
2022/12/11 06:15:44;;;;;;;4.75;3.40;;;;;;;21.98;46.14;92837.44;5046729;28;20109;-60
2022/12/11 06:18:09;;;;;;;4.10;3.35;;;;;;;22.18;46.09;92871.78;5045528;28;20051;-61
2022/12/11 06:20:35;;;;;;;4.90;3.38;;;;;;;21.66;45.85;92795.97;5045439;28;20083;-60
2022/12/11 06:23:01;;;;;;;4.85;3.42;;;;;;;22.25;45.93;92854.00;5045112;28;20056;-61
2022/12/11 06:25:27;;;;;;;4.57;3.33;;;;;;;22.07;45.47;92823.25;5044317;28;20029;-61
2022/12/11 06:27:52;;;;;;;4.00;3.22;;;;;;;22.34;45.66;92867.72;5027051;28;20462;-62
2022/12/11 06:30:17;;;;;;;4.30;3.50;;;;;;;22.41;45.87;92875.09;5046668;28;20060;-60
2022/12/11 06:32:43;;;;;;;5.38;3.30;;;;;;;22.46;45.36;92901.34;5046059;28;20036;-60
2022/12/11 06:35:08;;;;;;;4.15;3.20;;;;;;;22.53;45.46;92884.28;5045350;28;20497;-60
2022/12/11 06:37:35;;;;;;;3.88;3.08;;;;;;;22.52;45.05;92866.50;5045433;28;20040;-60
2022/12/11 06:40:00;;;;;;;4.10;3.25;;;;;;;22.63;45.43;92866.78;5043226;28;20041;-62
2022/12/11 06:42:26;;;;;;;3.22;2.72;;;;;;;22.67;45.27;92882.72;5044666;28;20315;-61
2022/12/11 06:44:51;;;;;;;3.95;3.17;;;;;;;22.71;45.08;92850.41;5030774;28;20057;-60
2022/12/11 06:47:17;;;;;;;4.60;3.42;;;;;;;22.69;45.02;92874.72;5044921;28;20036;-60
2022/12/11 06:49:42;;;;;;;3.88;2.80;;;;;;;22.13;45.21;92791.16;5045287;28;20025;-63
2022/12/11 06:52:07;;;;;;;4.47;3.40;;;;;;;22.96;46.11;92926.06;5046337;28;20029;-61
2022/12/11 06:54:33;;;;;;;4.25;3.30;;;;;;;23.14;46.16;92875.09;5028971;28;20045;-62
2022/12/11 06:56:58;;;;;;;4.82;2.78;;;;;;;23.02;45.65;92869.38;5044823;28;20102;-62
2022/12/11 06:59:24;;;;;;;5.80;3.20;;;;;;;23.26;45.24;92893.13;5045085;28;20052;-60
2022/12/11 07:01:49;;;;;;;5.38;3.00;;;;;;;23.28;45.25;92885.13;5044747;28;20036;-61
2022/12/11 07:04:15;;;;;;;5.30;3.28;;;;;;;23.21;45.44;92896.78;5044700;28;20059;-62
2022/12/11 07:06:40;;;;;;;3.00;2.60;;;;;;;23.05;45.68;92906.38;5045183;28;20102;-60
2022/12/11 07:09:06;;;;;;;4.00;2.80;;;;;;;23.18;45.66;92891.75;5044831;28;20079;-60
2022/12/11 07:11:31;;;;;;;4.20;2.95;;;;;;;23.19;45.06;92904.09;5043650;28;20037;-61
2022/12/11 07:13:59;;;;;;;3.55;3.10;;;;;;;23.12;45.33;92927.38;5027148;28;20055;-62
2022/12/11 07:16:25;;;;;;;3.83;2.55;;;;;;;23.14;45.66;92903.03;5045919;28;20036;-60
2022/12/11 07:18:50;;;;;;;4.18;2.97;;;;;;;23.16;45.77;92907.94;5044330;28;20045;-60
2022/12/11 07:21:16;;;;;;;3.65;2.85;;;;;;;23.18;45.46;92919.69;5044123;28;20498;-61
2022/12/11 07:23:42;;;;;;;3.85;3.03;;;;;;;23.22;45.40;92909.13;5028488;28;20041;-61
2022/12/11 07:26:12;;;;;;;5.28;3.30;;;;;;;23.28;45.22;92928.69;5025588;28;20036;-61
2022/12/11 07:28:38;;;;;;;3.80;2.95;;;;;;;23.16;44.62;92889.59;5042464;28;20818;-60
2022/12/11 07:31:05;;;;;;;3.53;2.72;;;;;;;23.20;44.61;92892.63;5014953;28;20032;-61
2022/12/11 07:33:30;;;;;;;5.30;2.80;;;;;;;22.42;45.01;92846.66;5043368;28;20072;-61
2022/12/11 07:36:00;;;;;;;3.50;2.70;;;;;;;22.88;45.08;92914.50;5023572;28;20142;-61
2022/12/11 07:38:25;;;;;;;3.63;2.60;;;;;;;23.35;45.12;92938.78;5040540;28;20429;-61
2022/12/11 07:40:51;;;;;;;3.70;2.70;;;;;;;23.07;44.72;92914.72;5042466;28;20032;-61
2022/12/11 07:43:16;;;;;;;4.13;2.70;;;;;;;23.46;44.50;92944.47;5043862;28;20116;-61
2022/12/11 07:45:41;;;;;;;3.50;2.85;;;;;;;23.37;44.48;92963.47;5041996;28;20057;-60
2022/12/11 07:48:07;;;;;;;3.17;2.45;;;;;;;23.18;44.31;92946.19;5040326;28;20092;-60
2022/12/11 07:50:32;;;;;;;3.90;2.60;;;;;;;23.29;44.52;92945.75;5041422;28;20475;-60
2022/12/11 07:52:58;;;;;;;3.67;2.60;;;;;;;23.37;44.24;92925.34;5042796;28;20070;-61
2022/12/11 07:55:23;;;;;;;3.85;2.55;;;;;;;23.39;44.28;92955.44;5044077;28;20044;-60
2022/12/11 07:57:49;;;;;;;3.90;2.40;;;;;;;23.55;44.31;92967.66;5043094;28;20103;-61
2022/12/11 08:00:15;;;;;;;3.05;2.50;;;;;;;23.35;44.00;92944.25;5026371;28;20041;-61
2022/12/11 08:02:41;;;;;;;3.28;2.45;;;;;;;23.34;44.67;92959.13;5044048;28;20108;-61
2022/12/11 08:05:07;;;;;;;3.15;2.22;;;;;;;23.38;44.68;92964.91;5025329;28;20503;-62
2022/12/11 08:07:34;;;;;;;3.85;2.65;;;;;;;23.45;44.46;92936.88;5042682;28;20048;-59
2022/12/11 08:09:59;;;;;;;3.08;2.30;;;;;;;23.35;44.65;92933.34;5042351;28;20091;-61
2022/12/11 08:12:25;;;;;;;3.50;2.63;;;;;;;22.95;44.61;92919.16;5045208;28;20037;-61
2022/12/11 08:14:50;;;;;;;3.65;2.60;;;;;;;23.50;44.33;92944.81;5046808;28;20498;-60
2022/12/11 08:17:16;;;;;;;3.90;2.58;;;;;;;23.48;43.85;92930.31;5031199;28;20045;-60
2022/12/11 08:19:41;;;;;;;3.42;2.70;;;;;;;23.08;44.12;92894.38;5049669;28;20460;-59
2022/12/11 08:22:07;;;;;;;3.47;2.25;;;;;;;23.21;43.93;92907.69;5033594;28;20488;-60
2022/12/11 08:24:32;;;;;;;3.13;2.50;;;;;;;23.63;43.68;92957.41;5045250;28;20639;-60
2022/12/11 08:26:58;;;;;;;3.50;2.53;;;;;;;22.58;44.31;92869.72;5042286;28;20066;-62
2022/12/11 08:29:23;;;;;;;2.70;2.20;;;;;;;23.77;43.51;92955.84;5029053;28;20456;-61
2022/12/11 08:31:49;;;;;;;3.30;2.47;;;;;;;23.51;43.93;92967.31;5043673;28;20425;-62
2022/12/11 08:34:14;;;;;;;3.67;2.17;;;;;;;23.60;43.87;92974.88;5042936;28;20039;-61
2022/12/11 08:36:40;;;;;;;3.72;2.20;;;;;;;23.45;43.93;92964.84;5042583;28;20573;-62
2022/12/11 08:39:05;;;;;;;2.92;2.42;;;;;;;23.23;43.73;92942.53;5042522;28;20053;-60
2022/12/11 08:41:31;;;;;;;3.50;2.28;;;;;;;23.57;43.65;92971.28;5031384;28;20083;-60
2022/12/11 08:43:57;;;;;;;2.90;2.33;;;;;;;23.37;44.20;92947.13;5008245;28;20482;-60
2022/12/11 08:46:24;;;;;;;3.65;2.60;;;;;;;23.61;43.54;92949.06;5041988;28;20256;-61
2022/12/11 08:48:50;;;;;;;3.40;2.33;;;;;;;23.64;43.73;92953.44;5042377;28;20657;-61
2022/12/11 08:51:17;;;;;;;3.13;2.50;;;;;;;23.62;43.26;92980.50;5023912;28;20057;-61
2022/12/11 08:53:42;;;;;;;2.83;2.10;;;;;;;23.69;43.35;92960.66;5042026;28;20136;-61
2022/12/11 08:56:10;;;;;;;3.10;2.30;;;;;;;23.76;43.12;92970.75;5008369;28;20483;-60
2022/12/11 08:58:35;;;;;;;2.72;2.20;;;;;;;23.82;42.90;92973.97;5043068;28;20033;-61
2022/12/11 09:01:05;;;;;;;3.10;2.20;;;;;;;23.94;42.88;92981.81;5043146;28;20119;-60
2022/12/11 09:03:31;;;;;;;4.43;2.05;;;;;;;23.56;42.59;92884.66;5043674;28;20041;-63
2022/12/11 09:05:56;;;;;;;4.25;2.13;;;;;;;23.95;42.58;92961.44;5042009;28;20053;-61
2022/12/11 09:08:22;;;;;;;3.17;2.08;;;;;;;23.97;42.75;92947.97;5043352;28;20060;-61
2022/12/11 09:10:47;;;;;;;4.07;2.10;;;;;;;23.87;43.24;92955.38;5043699;28;20044;-61
2022/12/11 09:13:13;;;;;;;3.47;2.17;;;;;;;23.74;43.86;92930.44;5029756;28;20111;-61
2022/12/11 09:15:41;;;;;;;2.90;2.30;;;;;;;24.00;43.51;92963.22;5043525;28;20636;-60
2022/12/11 09:18:07;;;;;;;2.63;2.00;;;;;;;24.02;43.70;92949.00;5044097;28;20041;-60
2022/12/11 09:20:32;;;;;;;2.80;2.00;;;;;;;23.65;43.99;92905.84;5047782;28;20037;-61
2022/12/11 09:22:58;;;;;;;3.28;2.08;;;;;;;23.86;43.61;92957.94;5046087;28;20127;-61
2022/12/11 09:25:23;;;;;;;3.20;2.00;;;;;;;23.89;43.76;92958.25;5036662;28;20047;-63
2022/12/11 09:27:48;;;;;;;2.40;1.95;;;;;;;23.89;43.58;92969.16;5046544;28;20513;-60
2022/12/11 09:30:14;;;;;;;3.47;2.17;;;;;;;23.95;43.87;92950.53;5046301;28;20359;-61
2022/12/11 09:32:40;;;;;;;3.22;2.17;;;;;;;23.91;43.90;92950.22;5047298;28;20425;-62
2022/12/11 09:35:06;;;;;;;3.00;1.98;;;;;;;22.41;43.76;92728.25;5046673;28;20037;-62
2022/12/11 09:37:32;;;;;;;3.72;2.17;;;;;;;23.94;44.02;92965.44;5028344;28;20131;-60
2022/12/11 09:39:57;;;;;;;3.45;1.85;;;;;;;23.95;43.31;92934.19;5046599;28;20037;-62
2022/12/11 09:42:23;;;;;;;3.05;2.20;;;;;;;24.05;43.45;92943.16;5046405;28;20540;-60
2022/12/11 09:44:50;;;;;;;2.95;1.90;;;;;;;24.12;43.35;92947.81;5047160;28;20150;-61
2022/12/11 09:47:16;;;;;;;2.75;1.95;;;;;;;24.07;43.87;92929.69;5027855;28;20049;-62
2022/12/11 09:49:42;;;;;;;3.92;1.80;;;;;;;24.17;43.31;92927.75;5029596;28;20062;-62
2022/12/11 09:52:22;;;;;;;4.20;2.13;;;;;;;24.20;43.26;92932.09;5029267;28;20746;-61
2022/12/11 09:54:58;;;;;;;;;;;;;;;24.31;43.03;92922.69;5029471;28;20076;-61
2022/12/11 09:57:42;;;;;;;2.92;1.80;;;;;;;24.32;43.33;92938.47;5031520;28;19976;-61
2022/12/11 10:00:12;;;;;;;4.28;1.83;;;;;;;24.41;42.77;92943.31;5046699;28;20052;-61
2022/12/11 10:02:59;;;;;;;2.75;1.63;;;;;;;24.54;42.84;92945.66;5045928;28;20900;-60
2022/12/11 10:05:42;;;;;;;4.35;1.73;;;;;;;24.14;43.68;92942.53;5036455;28;20127;-62
2022/12/11 10:08:22;;;;;;;3.50;2.10;;;;;;;24.20;43.93;92953.91;5028205;28;20107;-62
2022/12/11 10:10:50;;;;;;;2.35;1.80;;;;;;;24.33;43.70;92923.56;5017323;28;20044;-60
2022/12/11 10:13:40;;;;;;;2.72;1.63;;;;;;;24.21;44.06;92922.59;5045646;28;20114;-61
2022/12/11 10:16:35;;;;;;;2.90;2.00;;;;;;;24.22;43.90;92934.97;5029037;28;20575;-61
2022/12/11 10:19:00;;;;;;;2.95;1.85;;;;;;;24.21;44.21;92955.31;5030553;28;20528;-60
2022/12/11 10:21:26;;;;;;;1.77;1.42;;;;;;;24.03;44.07;92907.53;5045920;28;20040;-61
2022/12/11 10:23:55;;;;;;;3.75;1.92;;;;;;;23.99;44.21;92936.50;5046872;28;20037;-62
2022/12/11 10:26:21;;;;;;;2.58;1.80;;;;;;;24.19;43.94;92930.63;5033121;28;20036;-60
2022/12/11 10:28:47;;;;;;;4.15;2.33;;;;;;;24.26;44.08;92935.28;5035225;28;20028;-61
2022/12/11 10:31:36;;;;;;;2.60;1.80;;;;;;;24.41;43.63;92941.28;5035728;28;20138;-60
2022/12/11 10:34:02;;;;;;;4.50;2.03;;;;;;;24.59;43.53;92950.16;5043334;28;20060;-62
2022/12/11 10:36:30;;;;;;;2.40;1.80;;;;;;;24.39;44.24;92937.69;5019861;28;20122;-61
2022/12/11 10:38:56;;;;;;;2.33;1.67;;;;;;;23.65;44.08;92859.53;5045383;28;20094;-64
2022/12/11 10:41:23;;;;;;;2.83;1.60;;;;;;;24.42;43.37;92936.53;5011438;28;20110;-63
2022/12/11 10:43:50;;;;;;;5.20;1.58;;;;;;;24.61;43.53;92909.38;5010645;28;20041;-62
2022/12/11 10:46:26;;;;;;;4.20;2.10;;;;;;;24.71;43.32;92907.38;5011782;28;20028;-61
2022/12/11 10:48:57;;;;;;;2.78;1.58;;;;;;;24.41;44.06;92918.75;5044673;28;20124;-62
2022/12/11 10:51:29;;;;;;;2.25;1.40;;;;;;;24.44;44.07;92915.59;5023741;28;20445;-63
2022/12/11 10:53:57;;;;;;;2.65;1.60;;;;;;;24.39;44.13;92922.03;5027410;28;20056;-62
2022/12/11 10:56:26;;;;;;;3.67;1.50;;;;;;;24.36;43.77;92900.63;5035764;28;20036;-62
2022/12/11 10:58:52;;;;;;;2.30;1.40;;;;;;;24.29;44.25;92893.25;5045833;28;20025;-62
2022/12/11 11:01:20;;;;;;;4.22;1.58;;;;;;;24.03;44.36;92858.47;5045851;28;20047;-62
2022/12/11 11:04:14;;;;;;;2.45;1.35;;;;;;;24.22;44.21;92907.69;5028498;28;20036;-62
2022/12/11 11:06:39;;;;;;;3.42;1.70;;;;;;;24.19;44.51;92897.91;5044631;28;20086;-62
2022/12/11 11:09:41;;;;;;;3.30;1.70;;;;;;;24.12;44.71;92898.72;5029984;28;20049;-63
2022/12/11 11:12:20;;;;;;;3.33;1.70;;;;;;;23.31;44.90;92785.25;5018251;28;20198;-63
2022/12/11 11:14:46;;;;;;;3.07;1.57;;;;;;;22.83;44.42;92726.22;5030886;28;20049;-63
2022/12/11 11:17:15;;;;;;;3.03;1.85;;;;;;;24.09;44.59;92888.94;5028879;28;20106;-61
2022/12/11 11:19:41;;;;;;;2.15;1.45;;;;;;;24.14;44.15;92884.50;5012200;28;20059;-62
2022/12/11 11:22:17;;;;;;;2.22;1.60;;;;;;;24.13;44.14;92889.25;5012955;28;20092;-62
2022/12/11 11:24:44;;;;;;;1.70;1.38;;;;;;;23.09;43.97;92708.00;5028589;28;20087;-61
2022/12/11 11:27:17;;;;;;;2.20;1.40;;;;;;;24.23;43.72;92865.50;5028493;28;20068;-63
2022/12/11 11:29:42;;;;;;;2.63;1.65;;;;;;;22.78;43.64;92621.03;5044996;28;20163;-61
2022/12/11 11:32:37;;;;;;;2.65;1.50;;;;;;;24.21;44.36;92905.53;5028623;28;20515;-61
2022/12/11 11:35:10;;;;;;;2.55;1.42;;;;;;;24.23;44.31;92887.31;5043584;28;20118;-64
2022/12/11 11:37:35;;;;;;;2.35;1.50;;;;;;;24.05;44.47;92864.09;5045515;28;20040;-61
2022/12/11 11:40:15;;;;;;;2.17;1.52;;;;;;;23.54;44.15;92797.28;5045973;28;20040;-62
2022/12/11 11:42:59;;;;;;;;;;;;;;;24.17;44.48;92894.28;5012350;28;20045;-63
2022/12/11 11:45:39;;;;;;;2.22;1.30;;;;;;;24.26;43.78;92891.66;5043970;28;20324;-63